Concord Township, Maine
Current Conditions -  °F | °C
As of 1:35 PM on Monday 26 Jan 2015 (Local Time) from KWVL Reporting Station
Clear Clear  
Wind Chill:   Ceiling: Unl
Heat Index: 12°   Visibility: 10mi
Dew Point: -6°   Wind: 5mph
Humidity: 45%   Direction: 10°N
Pressure: 30.14"   Gusts: NA
Location:  45.1348°N, 69.8823°W
Report Text: KWVL 261835Z 01004KT 10SM CLR M11/M21 A3014 RMK AO1
Loading
Personal Weather Stations






























Interactive Weather Map New forecast layout! Learn more

10-Day Weather Forecast

Advertisements
Track Severe Weather on mobile